Time;durP1;ratioP1;P1;durP2;ratioP2;P2;SDS_P1;SDS_P2;PMS_P1;PMS_P2;Temp;Humidity;BMP_temperature;BMP_pressure;BME280_temperature;BME280_humidity;BME280_pressure;Samples;Min_cycle;Max_cycle;Signal;HPM_P1;HPM_P2
2022/05/31 00:00:22;;;;;;;3.28;2.97;;;9.20;99.90;;;;;;5072137;28;20076;-74
2022/05/31 00:02:50;;;;;;;2.10;2.00;;;9.20;99.90;;;;;;5071542;28;20037;-74
2022/05/31 00:05:16;;;;;;;2.50;2.17;;;9.30;99.90;;;;;;5071804;28;20083;-74
2022/05/31 00:07:42;;;;;;;2.22;2.03;;;9.20;99.90;;;;;;5054062;28;20048;-74
2022/05/31 00:10:10;;;;;;;3.47;2.15;;;9.10;99.90;;;;;;5054069;28;20502;-75
2022/05/31 00:12:37;;;;;;;1.98;1.73;;;9.10;99.90;;;;;;5071778;28;20040;-75
2022/05/31 00:15:04;;;;;;;161.48;95.90;;;9.10;99.90;;;;;;5072192;28;20516;-75
2022/05/31 00:17:30;;;;;;;17.13;12.88;;;9.20;99.90;;;;;;5071533;28;20139;-74
2022/05/31 00:19:57;;;;;;;6.90;3.63;;;9.20;99.90;;;;;;5072411;28;20047;-74
2022/05/31 00:22:25;;;;;;;3.05;2.80;;;9.20;99.90;;;;;;5071964;28;20564;-73
2022/05/31 00:24:51;;;;;;;4.60;2.80;;;9.20;99.90;;;;;;5054615;28;20055;-74
2022/05/31 00:27:24;;;;;;;2.58;2.30;;;9.30;99.90;;;;;;5071686;28;20048;-74
2022/05/31 00:29:50;;;;;;;4.22;2.70;;;9.30;99.90;;;;;;5071994;28;20048;-74
2022/05/31 00:32:20;;;;;;;2.58;2.13;;;9.40;99.90;;;;;;5071987;28;20043;-75
2022/05/31 00:34:48;;;;;;;2.92;2.63;;;9.30;99.90;;;;;;5071989;28;20094;-75
2022/05/31 00:37:14;;;;;;;2.70;2.50;;;9.30;99.90;;;;;;5072685;28;20040;-75
2022/05/31 00:39:40;;;;;;;4.03;2.45;;;9.20;99.90;;;;;;5071948;28;20044;-73
2022/05/31 00:42:12;;;;;;;3.28;2.20;;;9.20;99.90;;;;;;5071822;28;20045;-74
2022/05/31 00:44:39;;;;;;;3.28;2.80;;;9.10;99.90;;;;;;5072055;28;20052;-73
2022/05/31 00:47:09;;;;;;;3.50;2.88;;;9.10;99.90;;;;;;5071948;28;20168;-74
2022/05/31 00:49:59;;;;;;;2.83;2.63;;;9.00;99.90;;;;;;5072112;28;20045;-73
2022/05/31 00:52:32;;;;;;;3.58;3.00;;;9.00;99.90;;;;;;5072065;28;20045;-73
2022/05/31 00:55:04;;;;;;;3.22;2.92;;;8.90;99.90;;;;;;5071831;28;20109;-73
2022/05/31 00:57:32;;;;;;;4.63;3.38;;;9.00;99.90;;;;;;5072249;28;20076;-73
2022/05/31 01:00:03;;;;;;;3.63;2.65;;;9.00;99.90;;;;;;5071799;28;20045;-73
2022/05/31 01:02:29;;;;;;;2.38;2.17;;;9.00;99.90;;;;;;5072406;28;20455;-73
2022/05/31 01:05:01;;;;;;;3.25;2.80;;;9.10;99.90;;;;;;5075503;28;20048;-73
2022/05/31 01:07:27;;;;;;;3.30;3.00;;;9.10;99.90;;;;;;5075749;28;20094;-73
2022/05/31 01:09:53;;;;;;;4.28;3.88;;;9.20;99.90;;;;;;5075165;28;20484;-73
2022/05/31 01:12:21;;;;;;;4.22;2.90;;;9.20;99.90;;;;;;5075615;28;20063;-73
2022/05/31 01:14:47;;;;;;;5.07;3.53;;;9.20;99.90;;;;;;5075182;28;20085;-73
2022/05/31 01:17:18;;;;;;;4.00;3.63;;;9.30;99.90;;;;;;5075635;28;20113;-73
2022/05/31 01:19:57;;;;;;;3.10;2.78;;;9.30;99.90;;;;;;5075625;28;20063;-74
2022/05/31 01:22:43;;;;;;;3.00;2.70;;;9.30;99.90;;;;;;5075299;28;20087;-73
2022/05/31 01:25:28;;;;;;;4.10;3.75;;;9.30;99.90;;;;;;5075194;28;20048;-76
2022/05/31 01:28:12;;;;;;;3.08;2.72;;;9.40;99.90;;;;;;5075095;28;20052;-74
2022/05/31 01:30:59;;;;;;;3.25;2.95;;;9.40;99.90;;;;;;5075143;28;20057;-75
2022/05/31 01:33:43;;;;;;;3.33;3.00;;;9.40;99.90;;;;;;5075544;28;20463;-74
2022/05/31 01:36:24;;;;;;;3.53;2.92;;;9.40;99.90;;;;;;5075293;28;20044;-75
2022/05/31 01:39:00;;;;;;;3.85;3.33;;;9.40;99.90;;;;;;5075662;28;20106;-75
2022/05/31 01:41:36;;;;;;;3.55;3.25;;;9.50;99.90;;;;;;5074882;28;20033;-75
2022/05/31 01:44:07;;;;;;;4.53;3.20;;;9.50;99.90;;;;;;5074894;28;20060;-74
2022/05/31 01:46:35;;;;;;;3.90;3.50;;;9.50;99.90;;;;;;5075130;28;20131;-74
2022/05/31 01:49:06;;;;;;;3.92;3.15;;;9.40;99.90;;;;;;5074682;28;20052;-74
2022/05/31 01:51:33;;;;;;;2.88;2.60;;;9.50;99.90;;;;;;5074863;28;20051;-74
2022/05/31 01:53:59;;;;;;;5.68;3.60;;;9.40;99.90;;;;;;5075211;28;20124;-75
2022/05/31 01:56:26;;;;;;;4.30;3.28;;;9.50;99.90;;;;;;5075299;28;20087;-74
2022/05/31 01:58:55;;;;;;;3.53;3.22;;;9.60;99.90;;;;;;5075143;28;20071;-74
2022/05/31 02:01:21;;;;;;;4.22;3.40;;;9.50;99.90;;;;;;5074091;28;20488;-74
2022/05/31 02:03:47;;;;;;;3.70;3.38;;;9.60;99.90;;;;;;5074492;28;20090;-74
2022/05/31 02:06:29;;;;;;;3.58;3.28;;;9.50;99.90;;;;;;5074406;28;20052;-74
2022/05/31 02:08:55;;;;;;;4.00;3.00;;;9.50;99.90;;;;;;5056656;28;20095;-74
2022/05/31 02:11:21;;;;;;;5.47;3.42;;;9.50;99.90;;;;;;5056406;28;20051;-74
2022/05/31 02:13:47;;;;;;;3.50;2.90;;;9.50;99.90;;;;;;5074088;28;20040;-74
2022/05/31 02:16:13;;;;;;;3.63;3.22;;;9.50;99.90;;;;;;5073419;28;20181;-74
2022/05/31 02:21:23;;;;;;;4.18;3.42;;;9.50;99.90;;;;;;5073977;28;20059;-74
2022/05/31 02:23:49;;;;;;;3.33;3.03;;;9.40;99.90;;;;;;5074056;28;20040;-74
2022/05/31 02:26:15;;;;;;;3.85;3.10;;;9.40;99.90;;;;;;5072897;28;20113;-74
2022/05/31 02:28:41;;;;;;;3.15;2.85;;;9.40;99.90;;;;;;5073824;28;20036;-74
2022/05/31 02:31:07;;;;;;;2.88;2.67;;;9.50;99.90;;;;;;5073917;28;20047;-74
2022/05/31 02:33:33;;;;;;;3.70;3.40;;;9.50;99.90;;;;;;5073772;28;20044;-74
2022/05/31 02:35:59;;;;;;;3.15;2.67;;;9.50;99.90;;;;;;5073804;28;20119;-75
2022/05/31 02:38:24;;;;;;;3.58;2.83;;;9.50;99.90;;;;;;5073736;28;20095;-74
2022/05/31 02:40:50;;;;;;;2.95;2.67;;;9.50;99.90;;;;;;5073922;28;20045;-75
2022/05/31 02:43:16;;;;;;;3.78;2.83;;;9.50;99.90;;;;;;5073607;28;20460;-74
2022/05/31 02:45:42;;;;;;;3.38;2.90;;;9.50;99.90;;;;;;5073582;28;20384;-75
2022/05/31 02:48:08;;;;;;;3.47;3.20;;;9.50;99.90;;;;;;5073605;28;20048;-75
2022/05/31 02:50:33;;;;;;;3.45;3.13;;;9.50;99.90;;;;;;5073773;28;20048;-74
2022/05/31 02:52:59;;;;;;;3.88;2.90;;;9.50;99.90;;;;;;5073861;28;20494;-74
2022/05/31 02:55:25;;;;;;;3.95;3.40;;;9.40;99.90;;;;;;5073382;28;20041;-75
2022/05/31 02:57:50;;;;;;;3.75;3.30;;;9.40;99.90;;;;;;5073291;28;20052;-74
2022/05/31 03:00:16;;;;;;;5.43;3.15;;;9.40;99.90;;;;;;5073360;28;20083;-74
2022/05/31 03:02:42;;;;;;;3.55;3.22;;;9.40;99.90;;;;;;5073798;28;20090;-75
2022/05/31 03:05:08;;;;;;;3.60;3.08;;;9.40;99.90;;;;;;5055513;28;20064;-75
2022/05/31 03:07:34;;;;;;;3.05;2.75;;;9.30;99.90;;;;;;5073220;28;20049;-75
2022/05/31 03:09:59;;;;;;;2.90;2.70;;;9.30;99.90;;;;;;5073169;28;20090;-74
2022/05/31 03:12:27;;;;;;;3.47;2.70;;;9.30;99.90;;;;;;5073198;28;20052;-75
2022/05/31 03:15:10;;;;;;;2.85;2.65;;;9.20;99.90;;;;;;5073360;28;20045;-74
2022/05/31 03:17:39;;;;;;;3.72;3.42;;;9.20;99.90;;;;;;5073674;28;20115;-74
2022/05/31 03:20:21;;;;;;;2.92;2.67;;;9.20;99.90;;;;;;5072954;28;20051;-74
2022/05/31 03:22:57;;;;;;;8.23;3.17;;;9.20;99.90;;;;;;5073453;28;20049;-74
2022/05/31 03:25:26;;;;;;;2.65;2.45;;;9.20;99.90;;;;;;5055479;28;20044;-75
2022/05/31 03:27:54;;;;;;;3.20;3.00;;;9.20;99.90;;;;;;5072885;28;20048;-74
2022/05/31 03:30:20;;;;;;;3.50;3.17;;;9.50;99.90;;;;;;5072889;28;20070;-75
2022/05/31 03:32:46;;;;;;;3.50;3.20;;;9.20;99.90;;;;;;5055602;28;20124;-74
2022/05/31 03:35:12;;;;;;;4.28;3.30;;;9.30;99.90;;;;;;5073128;28;20182;-74
2022/05/31 03:37:40;;;;;;;4.70;3.42;;;9.30;99.90;;;;;;5072817;28;20044;-74
2022/05/31 03:40:07;;;;;;;3.85;3.10;;;9.30;99.90;;;;;;5055070;28;20392;-75
2022/05/31 03:42:33;;;;;;;3.40;2.85;;;9.30;99.90;;;;;;5072677;28;20037;-75
2022/05/31 03:44:59;;;;;;;3.75;3.38;;;9.30;99.90;;;;;;5072987;28;20552;-74
2022/05/31 03:47:25;;;;;;;6.18;3.53;;;9.40;99.90;;;;;;5071483;28;20071;-74
2022/05/31 03:49:51;;;;;;;3.90;3.20;;;9.40;99.90;;;;;;5071604;28;20052;-75
2022/05/31 03:52:17;;;;;;;4.10;3.65;;;9.40;99.90;;;;;;5072743;28;20436;-74
2022/05/31 03:54:43;;;;;;;4.75;3.53;;;9.40;99.90;;;;;;5054853;28;20059;-75
2022/05/31 03:57:21;;;;;;;4.63;4.00;;;9.40;99.90;;;;;;5072506;28;20048;-74
2022/05/31 03:59:46;;;;;;;4.88;3.78;;;9.50;99.90;;;;;;5072469;28;20052;-74
2022/05/31 04:02:12;;;;;;;4.03;3.72;;;9.50;99.90;;;;;;5072368;28;20055;-74
2022/05/31 04:04:37;;;;;;;4.10;3.65;;;9.50;99.90;;;;;;5072420;28;20044;-74
2022/05/31 04:07:03;;;;;;;4.15;3.38;;;9.50;99.90;;;;;;5054913;28;20053;-74
2022/05/31 04:09:30;;;;;;;4.72;3.50;;;9.50;99.90;;;;;;5072001;28;20048;-74
2022/05/31 04:11:57;;;;;;;5.70;4.25;;;9.50;99.90;;;;;;5071069;28;20040;-74
2022/05/31 04:14:23;;;;;;;4.20;3.78;;;9.50;99.90;;;;;;5071054;28;20048;-74
2022/05/31 04:16:49;;;;;;;4.90;4.38;;;9.50;99.90;;;;;;5054351;28;20036;-75
2022/05/31 04:19:15;;;;;;;5.65;5.07;;;9.60;99.90;;;;;;5072138;28;20456;-74
2022/05/31 04:21:41;;;;;;;4.25;3.80;;;9.50;99.90;;;;;;5072021;28;20120;-74
2022/05/31 04:24:11;;;;;;;5.20;4.50;;;9.50;99.90;;;;;;5072683;28;20131;-74
2022/05/31 04:26:43;;;;;;;4.45;4.05;;;9.50;99.90;;;;;;5072215;28;20049;-74
2022/05/31 04:29:09;;;;;;;4.43;3.88;;;9.60;99.90;;;;;;5054640;28;20140;-74
2022/05/31 04:31:34;;;;;;;6.05;4.35;;;9.60;99.90;;;;;;5072730;28;20120;-74
2022/05/31 04:34:02;;;;;;;4.60;4.20;;;9.60;99.90;;;;;;5071783;28;20048;-74
2022/05/31 04:36:27;;;;;;;5.32;4.85;;;9.70;99.90;;;;;;5054556;28;20121;-74
2022/05/31 04:38:53;;;;;;;5.28;4.30;;;9.70;99.90;;;;;;5074348;28;20045;-74
2022/05/31 04:41:24;;;;;;;9.30;5.10;;;9.70;99.90;;;;;;5075917;28;20036;-74
2022/05/31 04:43:54;;;;;;;4.65;4.18;;;9.70;99.90;;;;;;5075548;28;20053;-73
2022/05/31 04:46:23;;;;;;;5.40;4.28;;;9.70;99.90;;;;;;5076294;28;20080;-74
2022/05/31 04:48:50;;;;;;;4.55;4.15;;;9.80;99.90;;;;;;5076044;28;20378;-73
2022/05/31 04:51:16;;;;;;;5.00;4.53;;;9.90;99.90;;;;;;5075873;28;20051;-74
2022/05/31 04:53:42;;;;;;;6.28;5.57;;;9.90;99.90;;;;;;5041589;28;20048;-74
2022/05/31 04:56:11;;;;;;;5.07;4.55;;;9.90;99.90;;;;;;5075711;28;20044;-74
2022/05/31 04:58:37;;;;;;;5.90;5.07;;;9.90;99.90;;;;;;5075556;28;20048;-74
2022/05/31 05:01:06;;;;;;;7.40;5.45;;;9.90;99.90;;;;;;5075383;28;20045;-74
2022/05/31 05:03:35;;;;;;;6.28;5.05;;;10.00;99.90;;;;;;5074835;28;20524;-74
2022/05/31 05:06:06;;;;;;;6.13;5.40;;;10.00;99.90;;;;;;5074913;28;20498;-74
2022/05/31 05:08:34;;;;;;;5.22;4.38;;;10.10;99.90;;;;;;5075522;28;20048;-74
2022/05/31 05:11:01;;;;;;;5.95;5.35;;;10.10;99.90;;;;;;5075194;28;20055;-74
2022/05/31 05:13:27;;;;;;;6.95;4.93;;;10.20;99.90;;;;;;5057228;28;20045;-74
2022/05/31 05:15:55;;;;;;;7.78;5.50;;;10.30;99.90;;;;;;5074907;28;20059;-74
2022/05/31 05:18:21;;;;;;;6.15;5.43;;;10.30;99.90;;;;;;5075006;28;20044;-74
2022/05/31 05:20:47;;;;;;;7.25;5.15;;;10.40;99.90;;;;;;5075044;28;20077;-74
2022/05/31 05:23:13;;;;;;;6.88;5.45;;;10.40;99.90;;;;;;5074950;28;20151;-74
2022/05/31 05:25:39;;;;;;;5.68;5.15;;;10.50;99.90;;;;;;5057672;28;20083;-74
2022/05/31 05:30:50;;;;;;;9.77;5.32;;;10.60;99.90;;;;;;5074910;28;20060;-74
2022/05/31 05:33:16;;;;;;;7.50;5.50;;;10.60;99.90;;;;;;5074788;28;20048;-74
2022/05/31 05:35:42;;;;;;;7.47;6.05;;;10.60;99.90;;;;;;5074362;28;20577;-74
2022/05/31 05:38:08;;;;;;;6.65;5.93;;;10.70;99.90;;;;;;5074829;28;20048;-74
2022/05/31 05:40:34;;;;;;;7.03;5.53;;;10.70;99.90;;;;;;5074575;28;20048;-74
2022/05/31 05:43:00;;;;;;;8.48;6.00;;;10.70;99.90;;;;;;5056687;28;20421;-74
2022/05/31 05:45:26;;;;;;;6.50;5.85;;;10.70;99.90;;;;;;5075215;28;20114;-73
2022/05/31 05:47:52;;;;;;;5.88;5.20;;;10.80;99.90;;;;;;5056637;28;20128;-74
2022/05/31 05:50:17;;;;;;;7.03;5.30;;;10.80;99.90;;;;;;5056686;28;20148;-73
2022/05/31 05:52:49;;;;;;;8.20;6.43;;;10.80;99.90;;;;;;5074519;28;20036;-74
2022/05/31 05:55:15;;;;;;;6.78;5.65;;;10.90;99.90;;;;;;5074802;28;20087;-73
2022/05/31 05:57:41;;;;;;;6.03;4.88;;;10.90;99.90;;;;;;5074275;28;20041;-74
2022/05/31 06:00:07;;;;;;;7.72;6.07;;;10.90;99.90;;;;;;5074482;28;20507;-74
2022/05/31 06:02:34;;;;;;;5.40;4.90;;;11.00;99.90;;;;;;5074084;28;20479;-73
2022/05/31 06:05:08;;;;;;;7.38;5.25;;;11.00;99.90;;;;;;5074213;28;20448;-74
2022/05/31 06:07:37;;;;;;;7.00;5.32;;;11.10;99.90;;;;;;5074301;28;20106;-74
2022/05/31 06:10:25;;;;;;;6.15;4.93;;;11.10;99.90;;;;;;5074102;28;20040;-74
2022/05/31 06:13:02;;;;;;;8.50;5.03;;;11.20;99.90;;;;;;5074210;28;20048;-74
2022/05/31 06:15:33;;;;;;;7.22;5.03;;;11.20;99.90;;;;;;5074471;28;20040;-74
2022/05/31 06:18:04;;;;;;;5.95;4.90;;;11.30;99.90;;;;;;5074282;28;20090;-74
2022/05/31 06:20:30;;;;;;;9.43;6.43;;;11.40;99.90;;;;;;5056060;28;20074;-75
2022/05/31 06:22:57;;;;;;;7.97;5.68;;;11.40;99.90;;;;;;5073574;28;20115;-74
2022/05/31 06:25:23;;;;;;;6.88;5.95;;;11.50;99.90;;;;;;5073706;28;20057;-74
2022/05/31 06:27:50;;;;;;;5.47;4.97;;;12.10;99.90;;;;;;5073649;28;20045;-74
2022/05/31 06:30:15;;;;;;;7.68;6.03;;;11.70;99.90;;;;;;5074261;28;20069;-74
2022/05/31 06:32:41;;;;;;;8.00;5.20;;;11.80;99.90;;;;;;5073342;28;20500;-74
2022/05/31 06:35:08;;;;;;;6.40;5.47;;;11.90;99.90;;;;;;5074077;28;20124;-74
2022/05/31 06:37:34;;;;;;;7.72;5.25;;;12.00;99.90;;;;;;5055860;28;20052;-74
2022/05/31 06:39:59;;;;;;;7.38;5.50;;;12.10;99.90;;;;;;5073418;28;20147;-74
2022/05/31 06:42:25;;;;;;;7.80;5.10;;;12.10;99.90;;;;;;5073064;28;20041;-75
2022/05/31 06:44:51;;;;;;;6.60;4.57;;;12.10;99.90;;;;;;5072740;28;20143;-75
2022/05/31 06:47:16;;;;;;;5.95;5.15;;;12.20;99.90;;;;;;5072876;28;20128;-74
2022/05/31 06:49:42;;;;;;;6.63;5.10;;;12.30;99.90;;;;;;5073257;28;20041;-74
2022/05/31 06:57:42;;;;;;;5.80;5.25;;;12.50;99.90;;;;;;5072631;28;20471;-74
2022/05/31 07:00:11;;;;;;;6.13;5.35;;;12.50;99.90;;;;;;5072883;28;20044;-75
2022/05/31 07:02:37;;;;;;;6.53;5.32;;;12.60;99.90;;;;;;5072610;28;20403;-74
2022/05/31 07:05:03;;;;;;;7.68;5.18;;;12.70;99.90;;;;;;5073255;28;20047;-74
2022/05/31 07:07:29;;;;;;;6.10;5.15;;;12.90;99.90;;;;;;5073126;28;20044;-74
2022/05/31 07:09:55;;;;;;;5.20;4.65;;;13.10;99.90;;;;;;5072707;28;20132;-74
2022/05/31 07:12:21;;;;;;;5.38;4.78;;;13.30;99.90;;;;;;5072571;28;20041;-74
2022/05/31 07:14:47;;;;;;;5.80;4.45;;;13.60;99.90;;;;;;5072528;28;20049;-75
2022/05/31 07:17:12;;;;;;;10.63;4.70;;;13.80;99.90;;;;;;5072665;28;20460;-73
2022/05/31 07:19:39;;;;;;;6.30;4.32;;;14.00;99.90;;;;;;5072760;28;20056;-73
2022/05/31 07:22:05;;;;;;;6.50;4.90;;;14.20;99.90;;;;;;5072836;28;20422;-74
2022/05/31 07:24:31;;;;;;;4.65;4.25;;;14.30;99.90;;;;;;5072567;28;20127;-74
2022/05/31 07:26:57;;;;;;;5.55;4.13;;;14.70;99.90;;;;;;5072687;28;20101;-74
2022/05/31 07:29:24;;;;;;;5.68;3.92;;;15.00;99.90;;;;;;5072554;28;20083;-73
2022/05/31 07:31:49;;;;;;;6.05;4.78;;;15.40;99.90;;;;;;5054615;28;20036;-75
2022/05/31 07:34:16;;;;;;;5.15;4.30;;;15.70;99.90;;;;;;5054906;28;20071;-74
2022/05/31 07:36:43;;;;;;;4.25;3.33;;;16.00;99.90;;;;;;5072510;28;20052;-74
2022/05/31 07:39:13;;;;;;;5.60;4.15;;;16.10;99.90;;;;;;5072279;28;20044;-74
2022/05/31 07:41:39;;;;;;;5.57;3.47;;;16.70;99.90;;;;;;5072121;28;20044;-74
2022/05/31 07:44:05;;;;;;;6.70;3.65;;;17.50;99.90;;;;;;5071621;28;20118;-75
2022/05/31 07:46:31;;;;;;;4.38;3.97;;;17.90;99.90;;;;;;5072230;28;20048;-74
2022/05/31 07:48:57;;;;;;;4.93;3.50;;;18.00;99.90;;;;;;5072084;28;20048;-74
2022/05/31 07:51:23;;;;;;;4.45;3.70;;;17.80;99.90;;;;;;5072229;28;20052;-74
2022/05/31 07:53:51;;;;;;;4.32;3.92;;;17.60;99.90;;;;;;5072440;28;20059;-74
2022/05/31 07:56:17;;;;;;;4.82;3.83;;;17.50;99.90;;;;;;5072382;28;20045;-74
2022/05/31 07:58:43;;;;;;;3.60;3.22;;;17.60;99.90;;;;;;5071805;28;20051;-74
2022/05/31 08:01:13;;;;;;;5.47;4.03;;;17.60;99.90;;;;;;5054073;28;20388;-74
2022/05/31 08:03:39;;;;;;;5.00;3.53;;;17.90;99.90;;;;;;5072083;28;20044;-74
2022/05/31 08:06:14;;;;;;;4.07;3.20;;;18.10;99.90;;;;;;5054012;28;20063;-73
2022/05/31 08:08:40;;;;;;;6.15;4.07;;;18.20;99.90;;;;;;5072104;28;20571;-75
2022/05/31 08:11:13;;;;;;;3.78;3.40;;;18.10;99.90;;;;;;5072000;28;20079;-75
2022/05/31 08:13:38;;;;;;;;;;;18.00;99.90;;;;;;5074659;28;20044;-75
2022/05/31 08:16:06;;;;;;;4.07;3.78;;;18.00;99.90;;;;;;5076312;28;19924;-74
2022/05/31 08:18:32;;;;;;;5.45;3.47;;;18.00;99.90;;;;;;5058914;28;20519;-75
2022/05/31 08:21:04;;;;;;;4.35;3.53;;;18.00;99.90;;;;;;5076223;28;20059;-75
2022/05/31 08:23:31;;;;;;;6.30;3.72;;;18.10;99.90;;;;;;5075856;28;20076;-75
2022/05/31 08:25:57;;;;;;;4.03;2.80;;;19.30;99.90;;;;;;5075704;28;20052;-75
2022/05/31 08:28:23;;;;;;;3.20;2.92;;;20.20;99.90;;;;;;5075449;28;20047;-75
2022/05/31 08:30:53;;;;;;;5.65;3.53;;;21.00;99.90;;;;;;5075809;28;20048;-77
2022/05/31 08:33:18;;;;;;;3.67;3.33;;;21.60;99.70;;;;;;5075994;28;20097;-78
2022/05/31 08:35:44;;;;;;;3.45;2.95;;;22.20;98.50;;;;;;5075837;28;20439;-74
2022/05/31 08:38:10;;;;;;;3.03;2.72;;;22.60;97.50;;;;;;5075881;28;20041;-75
2022/05/31 08:41:01;;;;;;;4.70;2.78;;;22.90;97.10;;;;;;5076399;28;20048;-76
2022/05/31 08:43:47;;;;;;;3.00;2.70;;;23.40;95.30;;;;;;5033769;28;20060;-76
2022/05/31 08:46:46;;;;;;;4.90;3.25;;;23.60;90.80;;;;;;5034499;28;20057;-75
2022/05/31 08:52:28;;;;;;;4.53;3.70;;;23.40;91.20;;;;;;5075299;28;20060;-76
2022/05/31 08:57:54;;;;;;;3.80;3.00;;;23.40;92.00;;;;;;5075472;28;20049;-75
2022/05/31 09:00:31;;;;;;;4.82;2.42;;;23.60;88.90;;;;;;5075537;28;20040;-75
2022/05/31 09:03:18;;;;;;;3.33;2.40;;;23.60;88.10;;;;;;5075457;28;20120;-78
2022/05/31 09:05:52;;;;;;;3.20;2.50;;;24.10;84.50;;;;;;5075024;28;20040;-77
2022/05/31 09:08:29;;;;;;;6.55;2.78;;;24.20;88.40;;;;;;5075657;28;20105;-77
2022/05/31 09:11:12;;;;;;;8.38;3.05;;;24.40;85.00;;;;;;5074921;28;20080;-78
2022/05/31 09:14:39;;;;;;;3.90;2.97;;;24.40;87.70;;;;;;5075130;28;20043;-77
2022/05/31 09:17:26;;;;;;;2.75;2.20;;;24.30;78.80;;;;;;4992994;28;20096;-77
2022/05/31 09:20:27;;;;;;;3.63;2.00;;;24.20;82.90;;;;;;4993314;28;20089;-75
2022/05/31 09:22:54;;;;;;;10.95;7.95;;;23.70;78.90;;;;;;5023772;28;20133;-84
2022/05/31 09:25:20;;;;;;;4.72;3.00;;;22.70;85.10;;;;;;5048343;28;20059;-77
2022/05/31 09:27:50;;;;;;;4.28;2.33;;;22.60;85.30;;;;;;5074821;28;20060;-78
2022/05/31 09:30:36;;;;;;;3.40;2.10;;;22.90;83.00;;;;;;5057104;28;20052;-80
2022/05/31 09:33:10;;;;;;;3.85;2.42;;;23.60;81.60;;;;;;5075323;28;20068;-76
2022/05/31 09:35:39;;;;;;;4.97;2.45;;;23.90;79.70;;;;;;5074733;28;20040;-79
2022/05/31 09:38:14;;;;;;;6.93;4.07;;;24.30;80.20;;;;;;5075256;28;20078;-74
2022/05/31 09:40:50;;;;;;;5.25;2.72;;;23.70;78.60;;;;;;5074791;28;20056;-75
2022/05/31 09:43:35;;;;;;;2.40;2.20;;;22.40;77.40;;;;;;5074577;28;20067;-74
2022/05/31 09:46:04;;;;;;;2.60;2.40;;;21.50;79.50;;;;;;5074642;28;20128;-75
2022/05/31 09:48:29;;;;;;;3.17;2.22;;;21.10;81.40;;;;;;5073680;28;20440;-76
2022/05/31 09:51:00;;;;;;;3.60;3.05;;;21.00;82.30;;;;;;5073495;28;20051;-74
2022/05/31 09:59:25;;;;;;;3.75;2.90;;;20.30;81.40;;;;;;5073811;28;20131;-74
2022/05/31 10:01:51;;;;;;;4.00;2.40;;;19.80;80.70;;;;;;5063961;28;20195;-74
2022/05/31 10:04:43;;;;;;;5.10;2.92;;;19.60;83.00;;;;;;5073654;28;20072;-75
2022/05/31 10:07:09;;;;;;;3.45;2.60;;;19.30;81.30;;;;;;5069410;28;20122;-74
2022/05/31 10:09:43;;;;;;;4.90;3.10;;;19.00;82.50;;;;;;5055609;28;20120;-75
2022/05/31 10:12:21;;;;;;;26.75;16.23;;;18.90;81.20;;;;;;5073671;28;20041;-75
2022/05/31 10:14:50;;;;;;;6.45;4.65;;;18.80;81.00;;;;;;5073618;28;20044;-75
2022/05/31 10:17:32;;;;;;;3.33;2.40;;;18.70;81.70;;;;;;5073209;28;20508;-76
2022/05/31 10:20:16;;;;;;;4.77;2.63;;;18.70;82.50;;;;;;5074192;28;20075;-77
2022/05/31 10:23:03;;;;;;;3.05;2.63;;;18.80;81.40;;;;;;5073641;28;20098;-78
2022/05/31 10:25:41;;;;;;;4.47;2.95;;;18.80;81.20;;;;;;5074164;28;20041;-79
2022/05/31 10:28:27;;;;;;;6.38;2.95;;;18.80;81.50;;;;;;5073789;28;20056;-87
2022/05/31 10:31:06;;;;;;;7.63;5.05;;;18.80;80.70;;;;;;5073855;28;20056;-76
2022/05/31 10:33:34;;;;;;;5.68;2.85;;;18.80;81.40;;;;;;5073779;28;20128;-76
2022/05/31 10:36:18;;;;;;;4.07;2.70;;;18.80;81.40;;;;;;5072580;28;20048;-82
2022/05/31 10:38:46;;;;;;;2.97;2.67;;;18.90;81.40;;;;;;5056422;28;20052;-76
2022/05/31 10:41:18;;;;;;;4.40;3.03;;;19.00;81.80;;;;;;5056324;28;20044;-76
2022/05/31 10:43:57;;;;;;;13.77;11.23;;;19.10;82.60;;;;;;5056078;28;20060;-81
2022/05/31 10:46:33;;;;;;;4.55;3.03;;;19.20;81.90;;;;;;5074157;28;20332;-75
2022/05/31 10:49:21;;;;;;;3.08;2.55;;;19.40;81.30;;;;;;5073170;28;20368;-75
2022/05/31 10:52:06;;;;;;;4.85;2.28;;;19.60;81.70;;;;;;5073692;28;20066;-75
2022/05/31 10:54:40;;;;;;;4.57;2.75;;;19.80;81.20;;;;;;5073694;28;20404;-75
2022/05/31 10:57:21;;;;;;;6.93;3.85;;;19.70;79.90;;;;;;5072856;28;20126;-79
2022/05/31 11:00:00;;;;;;;6.15;3.10;;;19.60;79.20;;;;;;5072993;28;20425;-76
2022/05/31 11:02:49;;;;;;;5.95;3.08;;;19.60;80.10;;;;;;5073166;28;20054;-77
2022/05/31 11:05:19;;;;;;;4.32;2.58;;;19.60;78.20;;;;;;5073716;28;20106;-75
2022/05/31 11:13:59;;;;;;;2.97;2.67;;;19.20;80.20;;;;;;5072711;28;20066;-76
2022/05/31 11:16:50;;;;;;;5.45;2.75;;;19.20;80.40;;;;;;5072912;28;20051;-76
2022/05/31 11:19:29;;;;;;;5.25;3.10;;;19.10;79.70;;;;;;5072624;28;20177;-76
2022/05/31 11:22:19;;;;;;;4.50;2.88;;;19.20;81.30;;;;;;5072690;28;20079;-76
2022/05/31 11:25:17;;;;;;;10.57;2.67;;;19.20;81.30;;;;;;5054570;28;20041;-76
2022/05/31 11:27:52;;;;;;;3.35;2.47;;;19.20;81.00;;;;;;5072525;28;20040;-76
2022/05/31 11:30:53;;;;;;;24.40;14.60;;;19.30;83.60;;;;;;5073168;28;20052;-77
2022/05/31 11:33:46;;;;;;;3.30;3.00;;;19.40;79.80;;;;;;5072727;28;20044;-76
2022/05/31 11:36:37;;;;;;;4.35;3.13;;;19.40;79.40;;;;;;5072488;28;20040;-75
2022/05/31 11:39:32;;;;;;;2.53;2.28;;;19.50;79.30;;;;;;5072269;28;20044;-75
2022/05/31 11:42:00;;;;;;;3.40;2.67;;;19.50;78.30;;;;;;5072276;28;20118;-75
2022/05/31 11:45:10;;;;;;;3.40;2.50;;;19.80;78.90;;;;;;5072481;28;20066;-75
2022/05/31 11:47:42;;;;;;;3.20;2.72;;;20.10;77.40;;;;;;4990493;28;20085;-75
2022/05/31 11:50:23;;;;;;;8.93;6.60;;;20.30;77.00;;;;;;4991210;28;20042;-76
2022/05/31 11:53:15;;;;;;;13.82;11.32;;;20.40;78.30;;;;;;5043615;28;20044;-73
2022/05/31 11:56:13;;;;;;;5.32;2.75;;;20.50;76.50;;;;;;5072212;28;20040;-73
2022/05/31 11:58:48;;;;;;;4.80;2.72;;;20.60;76.90;;;;;;5027221;28;20372;-74
2022/05/31 12:01:17;;;;;;;5.25;3.17;;;20.40;75.00;;;;;;5072471;28;20044;-73
2022/05/31 12:04:06;;;;;;;6.60;2.67;;;20.30;75.40;;;;;;5072058;28;20056;-73
2022/05/31 12:06:32;;;;;;;6.90;2.95;;;20.30;75.10;;;;;;5072768;28;20051;-73
2022/05/31 12:09:03;;;;;;;4.25;2.97;;;20.20;76.10;;;;;;5071828;28;20350;-73
2022/05/31 12:11:35;;;;;;;3.25;2.03;;;20.10;75.20;;;;;;5072567;28;20155;-73
2022/05/31 12:14:03;;;;;;;5.70;2.40;;;20.20;77.20;;;;;;5072618;28;20052;-74
2022/05/31 12:16:29;;;;;;;2.40;2.20;;;20.30;75.30;;;;;;5072534;28;20103;-73
2022/05/31 12:19:06;;;;;;;3.28;2.40;;;20.50;75.10;;;;;;5071968;28;20474;-72
2022/05/31 12:21:56;;;;;;;11.40;9.10;;;20.70;74.70;;;;;;5072361;28;20036;-77
2022/05/31 12:24:32;;;;;;;3.58;2.58;;;20.90;72.10;;;;;;5072469;28;20047;-75
2022/05/31 12:27:07;;;;;;;2.45;1.90;;;20.80;73.20;;;;;;5072680;28;20052;-75
2022/05/31 12:29:53;;;;;;;20.00;13.45;;;20.50;73.70;;;;;;5072569;28;20040;-78
2022/05/31 12:32:40;;;;;;;93.03;59.72;;;20.20;72.30;;;;;;5072912;28;20099;-81
2022/05/31 12:35:10;;;;;;;4.40;2.40;;;20.00;72.10;;;;;;5072848;28;20098;-78
2022/05/31 12:38:00;;;;;;;3.17;2.50;;;19.80;75.20;;;;;;5072233;28;20049;-79
2022/05/31 12:40:32;;;;;;;8.20;2.80;;;19.70;74.70;;;;;;5072297;28;20144;-80
2022/05/31 12:43:10;;;;;;;1.98;1.80;;;19.70;74.90;;;;;;5072318;28;20047;-79
2022/05/31 12:45:37;;;;;;;54.67;34.63;;;19.60;74.70;;;;;;5071744;28;20056;-81
2022/05/31 12:48:15;;;;;;;2.65;2.45;;;19.60;74.30;;;;;;5072079;28;20079;-75
2022/05/31 12:50:50;;;;;;;3.72;2.70;;;19.40;73.80;;;;;;5071983;28;20053;-76
2022/05/31 12:53:21;;;;;;;3.33;2.55;;;19.40;75.90;;;;;;5071987;28;20049;-75
2022/05/31 12:55:52;;;;;;;2.85;2.17;;;19.30;77.20;;;;;;5072348;28;20044;-76
2022/05/31 12:58:44;;;;;;;3.78;2.47;;;19.20;75.80;;;;;;5072339;28;20044;-77
2022/05/31 13:01:15;;;;;;;58.07;44.93;;;19.10;76.10;;;;;;5076164;28;20091;-78
2022/05/31 13:03:44;;;;;;;10.98;8.32;;;19.10;78.20;;;;;;5075819;28;20283;-77
2022/05/31 13:06:42;;;;;;;3.67;2.85;;;19.00;76.10;;;;;;5076193;28;20110;-77
2022/05/31 13:09:25;;;;;;;2.78;2.50;;;18.90;74.20;;;;;;5075997;28;20051;-76
2022/05/31 13:20:56;;;;;;;2.88;2.30;;;18.50;79.70;;;;;;5075361;28;20067;-82
2022/05/31 13:23:26;;;;;;;2.17;1.98;;;18.50;77.80;;;;;;5075634;28;20052;-82
2022/05/31 13:25:55;;;;;;;8.45;2.47;;;18.40;81.80;;;;;;5058114;28;20515;-85
2022/05/31 13:28:25;;;;;;;2.20;2.00;;;18.30;80.20;;;;;;5075651;28;20076;-80
2022/05/31 13:30:57;;;;;;;4.18;2.33;;;18.10;79.30;;;;;;5075321;28;20044;-83
2022/05/31 13:33:23;;;;;;;2.88;1.98;;;18.00;80.10;;;;;;5075665;28;20045;-82
2022/05/31 13:36:14;;;;;;;2.63;2.08;;;17.90;80.10;;;;;;5040797;28;20569;-83
2022/05/31 13:38:46;;;;;;;5.55;3.35;;;17.80;81.10;;;;;;5075747;28;20060;-82
2022/05/31 13:41:15;;;;;;;2.35;2.00;;;17.80;81.40;;;;;;5057495;28;20045;-83
2022/05/31 13:43:46;;;;;;;3.67;2.45;;;17.70;82.80;;;;;;5074763;28;20127;-82
2022/05/31 13:46:35;;;;;;;3.60;2.75;;;17.70;84.20;;;;;;5074749;28;20048;-83
2022/05/31 13:49:13;;;;;;;2.38;2.17;;;17.70;85.70;;;;;;5074484;28;20088;-82
2022/05/31 13:51:49;;;;;;;5.22;2.80;;;17.70;83.70;;;;;;5074724;28;20067;-84